FNUEFNMA

Guest
Details From FNUE - LUENA
To FNMA - MALANJE
Flight Number -
Tags generated
Created
Modified
Stats Distance 305 nm / 566 km
Max Altitude 34,000 ft / 10,363 m
Waypoints 6
Social Downloads 1
Likes 0
Share

Download

Looking for another format? Having issues loading an existing format? Contact us
Advertisement - Login to hide

Notes

Basic altitude profile: - Ascent Rate: 2500ft/min - Ascent Speed: 250kts - Cruise Altitude: 35000ft - Cruise Speed: 420kts - Descent Rate: 1500ft/min - Descent Speed: 250kts Options: - Use NATs: yes - Use PACOTS: yes - Use low airways: yes - Use high airways: yes

Route

FNUE VUE UM998 AXUGO UH600F MA FNMA

ID Type Via Altitude (ft/m) Position (lat/lon) Dist (leg/tot) Name
O FNUE APT - 0 / 0 -11.76809 / 19.89767 - / 0 nm LUENA
VUE VOR - 400 / 122 -11.76347 / 19.87790 1 / 1 nm LUENA VOR
AXUGO FIX UM998 (AWY-HI) 34,000 / 10,363 -9.63333 / 19.17083 134 / 135 nm
KILBI FIX UH600F (AWY-HI) 28,300 / 8,626 -9.61889 / 18.54167 37 / 173 nm
MA NDB UH600F (AWY-HI) 24,500 / 7,468 -9.55000 / 16.36667 128 / 301 nm MALANJE NDB
O FNMA APT - 0 / 0 -9.52508 / 16.31241 3 / 305 nm MALANJE

Altitude Profile

Advertisement - Login to hide

Weather


0- 5 10 15 20 25 30 35+ Temperature / °C

Clouds and Precipitation
Forecast for 2020-10-22 18:00 UTC. Updated 5 hours ago

Ground ~20,000 ft ~40,000 ft Winds

FNUE

Details ICAO FNUE (LUO)
Name Luena
Region Angola
Timezone Africa/Luanda (UTC+1.0)
Stats Elevation 4,445 ft / 1,355 m (AMSL)
Location -11.767200° 19.893400°
Runways 1
Magnetic Variation 2.555° W

METAR

Not found

TAF

TAF FNUE 221100Z 2212/2224 VRB03KT 8000 FEW025CB SCT030 TEMPO 2213/2219 8000 TSRA

Decode

Departure Runways

ID Width Length Bearing (true/mag) Surface Threshold Overrun Markings Lighting
11 148 ft / 45 m 10,981 ft / 3,347 m 104.00° / 106.56° ASPHALT 0 ft / 0 m 197 ft / 60 m PREC-APP CENTERLINE EDGE THRESHOLD REIL-OMNI
29 148 ft / 45 m 10,981 ft / 3,347 m 284.00° / 286.55° ASPHALT 0 ft / 0 m 190 ft / 58 m PREC-APP CENTERLINE EDGE THRESHOLD REIL-OMNI

FNMA

Details ICAO FNMA (MEG)
Name MALANJE
Region Angola
Timezone Africa/Luanda (UTC+1.0)
Stats Elevation 3,868 ft / 1,179 m (AMSL)
Location -9.525080° 16.312400°
Runways 1
Magnetic Variation 2.309° W

METAR

Not found

TAF

TAF FNMA 221150Z 2212/2224 VRB03KT 9000 BKN012 FEW016CB PROB30 TEMPO 2213/2219 8000 TS +RA PROB40 TEMPO 2220/2224 26004KT

Decode

Destination Runways

ID Width Length Bearing (true/mag) Surface Threshold Overrun Markings Lighting
13 98 ft / 30 m 7,247 ft / 2,209 m 123.40° / 125.71° ASPHALT 0 ft / 0 m 0 ft / 0 m APP
31 98 ft / 30 m 7,247 ft / 2,209 m 303.40° / 305.71° ASPHALT 0 ft / 0 m 0 ft / 0 m APP